Time;durP1;ratioP1;P1;durP2;ratioP2;P2;SDS_P1;SDS_P2;PMS_P1;PMS_P2;Temp;Humidity;BMP_temperature;BMP_pressure;BME280_temperature;BME280_humidity;BME280_pressure;Samples;Min_cycle;Max_cycle;Signal;HPM_P1;HPM_P2
2023/06/25 00:01:10;;;;;;;19.90;12.63;;;;;;;-144.47;95.40;52697.19;5033836;28;20059;-65
2023/06/25 00:03:35;;;;;;;36.17;13.70;;;;;;;-144.47;95.74;52693.22;5030202;28;20075;-64
2023/06/25 00:06:00;;;;;;;21.58;12.30;;;;;;;-144.47;96.42;52685.28;5030525;28;20106;-64
2023/06/25 00:08:26;;;;;;;21.75;13.38;;;;;;;-144.47;96.29;52689.25;5060995;22;20144;-69
2023/06/25 00:10:51;;;;;;;20.05;12.40;;;;;;;-144.47;97.09;52695.22;5028689;28;20030;-69
2023/06/25 00:13:17;;;;;;;23.05;11.88;;;;;;;-144.47;97.32;52689.25;5028963;28;20037;-71
2023/06/25 00:15:42;;;;;;;20.90;12.38;;;;;;;-144.47;97.68;52689.25;5028916;28;20112;-69
2023/06/25 00:18:08;;;;;;;20.77;13.95;;;;;;;-144.47;98.71;52657.47;5029118;28;20056;-71
2023/06/25 00:20:33;;;;;;;24.67;14.90;;;;;;;-144.47;99.50;52689.25;5029200;28;20045;-71
2023/06/25 00:22:59;;;;;;;23.48;13.45;;;;;;;-144.47;99.75;52691.25;5029039;28;20025;-67
2023/06/25 00:25:26;;;;;;;24.08;14.18;;;;;;;-144.47;100.00;52685.28;5010107;28;20112;-71
2023/06/25 00:27:52;;;;;;;27.10;14.30;;;;;;;-144.47;100.00;52707.13;5028988;28;20028;-67
2023/06/25 00:30:17;;;;;;;22.50;13.02;;;;;;;-144.47;100.00;52683.31;5028416;28;20494;-70
2023/06/25 00:32:44;;;;;;;30.70;13.88;;;;;;;-144.47;100.00;52685.28;5029089;28;20048;-69
2023/06/25 00:35:10;;;;;;;21.63;13.45;;;;;;;-144.47;100.00;52697.19;5028415;28;20037;-68
2023/06/25 00:37:36;;;;;;;20.40;12.85;;;;;;;-144.47;100.00;52689.25;5028892;28;20034;-72
2023/06/25 00:40:03;;;;;;;20.10;11.73;;;;;;;-144.47;100.00;52691.25;5028835;28;20040;-70
2023/06/25 00:42:41;;;;;;;32.08;11.77;;;;;;;-144.47;100.00;52677.34;5028811;28;20032;-68
2023/06/25 00:45:12;;;;;;;20.20;11.30;;;;;;;-144.47;100.00;52677.34;5028576;28;20029;-71
2023/06/25 00:47:38;;;;;;;21.33;10.90;;;;;;;-144.47;100.00;52669.41;5027794;28;20477;-72
2023/06/25 00:50:05;;;;;;;22.67;11.93;;;;;;;-144.47;100.00;52673.38;5026497;28;20032;-68
2023/06/25 00:52:30;;;;;;;18.67;11.27;;;;;;;-144.47;100.00;52659.47;5028784;28;20042;-69
2023/06/25 00:54:56;;;;;;;21.70;12.18;;;;;;;-144.47;100.00;52681.31;5028303;28;20048;-71
2023/06/25 00:57:21;;;;;;;19.90;12.30;;;;;;;-144.47;100.00;52669.41;5028381;28;20022;-67
2023/06/25 00:59:50;;;;;;;21.50;12.23;;;;;;;-144.47;100.00;52685.28;4992501;28;20025;-70
2023/06/25 01:02:35;;;;;;;19.98;11.63;;;;;;;-144.47;100.00;52685.28;5027679;28;20036;-70
2023/06/25 01:05:16;;;;;;;16.35;11.02;;;;;;;-144.47;100.00;52663.44;5009852;28;20082;-69
2023/06/25 01:07:44;;;;;;;21.65;11.85;;;;;;;-144.47;100.00;52681.31;5027929;28;20049;-71
2023/06/25 01:10:13;;;;;;;19.90;11.70;;;;;;;-144.47;100.00;52673.38;5027934;28;20079;-69
2023/06/25 01:12:39;;;;;;;19.15;10.73;;;;;;;-144.47;100.00;52701.19;5027543;28;20275;-71
2023/06/25 01:15:06;;;;;;;18.88;11.85;;;;;;;-144.47;100.00;52677.34;5027744;28;20064;-70
2023/06/25 01:17:31;;;;;;;21.23;11.40;;;;;;;-144.47;100.00;52667.41;5027989;28;20021;-70
2023/06/25 01:19:57;;;;;;;21.33;12.15;;;;;;;-144.47;100.00;52673.38;5028148;28;20539;-66
2023/06/25 01:22:29;;;;;;;17.92;11.13;;;;;;;-144.47;100.00;52675.34;5028388;28;20036;-70
2023/06/25 01:24:56;;;;;;;24.77;11.70;;;;;;;-144.47;100.00;52689.25;5026884;28;20013;-70
2023/06/25 01:27:22;;;;;;;18.58;10.68;;;;;;;-144.47;100.00;52675.34;5027539;28;20111;-70
2023/06/25 01:29:48;;;;;;;17.48;11.10;;;;;;;-144.47;100.00;52673.38;5027327;28;20064;-67
2023/06/25 01:32:14;;;;;;;21.98;11.35;;;;;;;-144.47;100.00;52677.34;5014594;28;20098;-70
2023/06/25 01:34:39;;;;;;;17.80;11.15;;;;;;;-144.47;100.00;52643.56;5027590;28;20499;-69
2023/06/25 01:37:06;;;;;;;18.63;11.18;;;;;;;-144.47;100.00;52675.34;5026868;28;20022;-70
2023/06/25 01:39:32;;;;;;;21.27;11.38;;;;;;;-144.47;100.00;52701.19;5009951;28;20037;-68
2023/06/25 01:41:57;;;;;;;19.85;11.63;;;;;;;-144.47;100.00;52665.44;5016054;28;20129;-67
2023/06/25 01:44:26;;;;;;;20.20;11.38;;;;;;;-144.47;100.00;52681.31;5027763;28;20100;-71
2023/06/25 01:46:52;;;;;;;17.20;11.02;;;;;;;-144.47;100.00;52661.44;5015123;28;20104;-72
2023/06/25 01:49:17;;;;;;;18.75;10.73;;;;;;;-144.47;100.00;52695.22;5027993;28;20100;-71
2023/06/25 01:51:43;;;;;;;17.02;11.10;;;;;;;-144.47;100.00;52695.22;5015128;28;20029;-71
2023/06/25 01:54:08;;;;;;;16.92;11.30;;;;;;;-144.47;100.00;52673.38;5027203;28;20128;-70
2023/06/25 01:56:33;;;;;;;15.55;10.23;;;;;;;-144.47;100.00;52667.41;5027032;28;20113;-72
2023/06/25 01:58:59;;;;;;;20.15;10.77;;;;;;;-144.47;100.00;52671.38;5022445;28;20029;-71
2023/06/25 02:01:24;;;;;;;17.23;11.07;;;;;;;-144.47;100.00;52673.38;5026715;28;20100;-69
2023/06/25 02:03:49;;;;;;;23.67;10.88;;;;;;;-144.47;100.00;52687.28;5027137;28;20017;-69
2023/06/25 02:06:15;;;;;;;16.92;10.32;;;;;;;-144.47;100.00;52701.19;5027475;28;20029;-69
2023/06/25 02:08:41;;;;;;;16.30;10.52;;;;;;;-144.47;100.00;52661.44;5027133;28;20052;-72
2023/06/25 02:11:06;;;;;;;18.50;10.45;;;;;;;-144.47;100.00;52699.19;5027582;28;20051;-67
2023/06/25 02:13:33;;;;;;;16.85;10.32;;;;;;;-144.47;100.00;52665.44;5026757;28;20029;-70
2023/06/25 02:15:58;;;;;;;26.85;10.48;;;;;;;-144.47;100.00;52699.19;5020267;28;20056;-70
2023/06/25 02:18:24;;;;;;;15.63;10.25;;;;;;;-144.47;100.00;52681.31;5027082;28;20045;-71
2023/06/25 02:20:49;;;;;;;23.85;10.45;;;;;;;-144.47;100.00;52655.50;5026694;28;20123;-66
2023/06/25 02:23:15;;;;;;;16.70;10.15;;;;;;;-144.47;100.00;52679.31;5026898;28;20025;-71
2023/06/25 02:25:40;;;;;;;16.60;10.25;;;;;;;-144.47;100.00;52689.25;5027119;28;20028;-69
2023/06/25 02:28:05;;;;;;;22.23;10.02;;;;;;;-144.47;100.00;52679.31;5026534;28;20033;-68
2023/06/25 02:30:31;;;;;;;20.40;9.93;;;;;;;-144.47;100.00;52703.16;5027146;28;20031;-70
2023/06/25 02:32:56;;;;;;;16.00;9.85;;;;;;;-144.47;100.00;52683.31;5027221;28;20132;-68
2023/06/25 02:35:21;;;;;;;21.77;11.50;;;;;;;-144.47;100.00;52681.31;5008515;28;20061;-70
2023/06/25 02:37:47;;;;;;;19.65;9.88;;;;;;;-144.47;100.00;52699.19;5026864;28;20076;-66
2023/06/25 02:40:12;;;;;;;19.15;10.48;;;;;;;-144.47;100.00;52681.31;5026950;28;20063;-70
2023/06/25 02:42:38;;;;;;;18.10;10.23;;;;;;;-144.47;100.00;52685.28;5026720;28;20028;-68
2023/06/25 02:45:03;;;;;;;18.13;10.02;;;;;;;-144.47;100.00;52695.22;5026410;28;20033;-70
2023/06/25 02:47:29;;;;;;;16.83;10.40;;;;;;;-144.47;100.00;52671.38;5026994;28;20025;-68
2023/06/25 02:49:54;;;;;;;16.02;10.15;;;;;;;-144.47;100.00;52657.47;5030201;28;20083;-69
2023/06/25 02:52:20;;;;;;;17.75;10.50;;;;;;;-144.47;100.00;52689.25;5031190;28;20076;-69
2023/06/25 02:54:45;;;;;;;21.33;11.35;;;;;;;-144.47;100.00;52675.34;5029926;28;20052;-67
2023/06/25 02:57:10;;;;;;;20.40;12.13;;;;;;;-144.47;100.00;52689.25;5024521;28;20021;-69
2023/06/25 02:59:36;;;;;;;16.95;9.93;;;;;;;-144.47;100.00;52687.28;5024980;28;20097;-72
2023/06/25 03:02:01;;;;;;;19.50;10.23;;;;;;;-144.47;100.00;52695.22;5029435;28;20021;-70
2023/06/25 03:04:27;;;;;;;18.02;10.30;;;;;;;-144.47;100.00;52677.34;5029695;28;20072;-67
2023/06/25 03:06:52;;;;;;;21.23;10.60;;;;;;;-144.47;100.00;52693.22;5030236;28;20025;-70
2023/06/25 03:09:18;;;;;;;16.13;9.95;;;;;;;-144.47;100.00;52689.25;5029991;28;20117;-69
2023/06/25 03:11:43;;;;;;;22.17;10.93;;;;;;;-144.47;100.00;52683.31;5030444;28;20179;-70
2023/06/25 03:14:08;;;;;;;14.18;9.38;;;;;;;-144.47;100.00;52691.25;5011298;28;20171;-72
2023/06/25 03:16:34;;;;;;;19.27;10.15;;;;;;;-144.47;100.00;52681.31;5029960;28;20436;-66
2023/06/25 03:19:00;;;;;;;20.88;10.32;;;;;;;-144.47;100.00;52697.19;5011797;28;20060;-69
2023/06/25 03:21:25;;;;;;;15.68;9.45;;;;;;;-144.47;100.00;52705.16;5029766;28;20021;-70
2023/06/25 03:23:51;;;;;;;19.48;9.82;;;;;;;-144.47;100.00;52685.28;5029490;28;20661;-72
2023/06/25 03:26:16;;;;;;;15.10;9.38;;;;;;;-144.47;100.00;52665.44;5029922;28;20033;-70
2023/06/25 03:28:41;;;;;;;21.48;9.38;;;;;;;-144.47;100.00;52669.41;5028924;28;20029;-70
2023/06/25 03:31:07;;;;;;;19.27;10.00;;;;;;;-144.47;100.00;52671.38;5029744;28;20525;-70
2023/06/25 03:33:32;;;;;;;16.83;8.27;;;;;;;-144.47;100.00;52677.34;5029175;28;20437;-68
2023/06/25 03:35:57;;;;;;;18.48;9.95;;;;;;;-144.47;100.00;52677.34;5029926;28;20017;-70
2023/06/25 03:38:23;;;;;;;18.33;8.50;;;;;;;-144.47;100.00;52681.31;5029320;28;20040;-68
2023/06/25 03:40:48;;;;;;;16.70;7.95;;;;;;;-144.47;100.00;52709.13;5032778;28;20117;-71
2023/06/25 03:43:13;;;;;;;15.85;9.23;;;;;;;-144.47;100.00;52675.34;5032442;28;20029;-70
2023/06/25 03:45:39;;;;;;;15.98;8.00;;;;;;;-144.47;100.00;52707.13;5034081;28;20052;-71
2023/06/25 03:48:05;;;;;;;19.55;8.70;;;;;;;-144.47;100.00;52675.34;5016340;28;20060;-70
2023/06/25 03:50:30;;;;;;;12.93;7.53;;;;;;;-144.47;100.00;52703.16;5015851;28;20041;-72
2023/06/25 03:52:55;;;;;;;15.48;7.63;;;;;;;-144.47;100.00;52709.13;5030604;28;21520;-70
2023/06/25 03:55:21;;;;;;;26.85;9.30;;;;;;;-144.47;100.00;52699.19;5030009;28;20419;-71
2023/06/25 03:57:47;;;;;;;17.13;8.02;;;;;;;-144.47;100.00;52679.31;5024321;28;20037;-70
2023/06/25 04:00:12;;;;;;;23.90;9.20;;;;;;;-144.47;100.00;52697.19;5027465;28;20025;-67
2023/06/25 04:02:38;;;;;;;13.73;7.70;;;;;;;-144.47;100.00;52679.31;5029105;28;20028;-72
2023/06/25 04:05:03;;;;;;;18.85;7.97;;;;;;;-144.47;100.00;52671.38;5029439;28;20014;-70
2023/06/25 04:07:29;;;;;;;13.25;8.43;;;;;;;-144.47;100.00;52685.28;5029338;28;20425;-71
2023/06/25 04:09:54;;;;;;;17.20;7.63;;;;;;;-144.47;100.00;52689.25;5029240;28;20530;-68
2023/06/25 04:12:20;;;;;;;12.63;7.35;;;;;;;-144.47;100.00;52707.13;5028196;28;20030;-69
2023/06/25 04:14:45;;;;;;;14.95;8.10;;;;;;;-144.47;100.00;52689.25;5027584;28;20038;-70
2023/06/25 04:17:11;;;;;;;19.40;7.90;;;;;;;-144.47;100.00;52693.22;5028346;28;20517;-67
2023/06/25 04:19:38;;;;;;;12.77;7.68;;;;;;;-144.47;100.00;52717.06;5028621;28;20522;-69
2023/06/25 04:22:04;;;;;;;15.23;8.02;;;;;;;-144.47;100.00;52671.38;5028899;28;20082;-68
2023/06/25 04:24:30;;;;;;;17.75;9.15;;;;;;;-144.47;100.00;52683.31;5028779;28;20376;-70
2023/06/25 04:26:56;;;;;;;11.93;7.85;;;;;;;-144.47;100.00;52675.34;5028390;28;20112;-70
2023/06/25 04:29:21;;;;;;;14.93;8.07;;;;;;;-144.47;100.00;52665.44;5028511;28;20048;-68
2023/06/25 04:31:46;;;;;;;11.82;7.25;;;;;;;-144.47;100.00;52667.41;5028649;28;20048;-71
2023/06/25 04:34:12;;;;;;;16.75;7.93;;;;;;;-144.47;100.00;52685.28;5028448;28;20025;-66
2023/06/25 04:36:37;;;;;;;14.93;8.15;;;;;;;-144.47;100.00;52681.31;5028616;28;20469;-70
2023/06/25 04:39:03;;;;;;;15.90;7.60;;;;;;;-144.47;100.00;52689.25;5028504;28;20082;-70
2023/06/25 04:41:28;;;;;;;12.68;7.30;;;;;;;-144.47;100.00;52667.41;5028378;28;20056;-69
2023/06/25 04:43:54;;;;;;;18.20;7.60;;;;;;;-144.47;100.00;52677.34;5027898;28;20112;-67
2023/06/25 04:46:19;;;;;;;14.55;7.25;;;;;;;-144.47;100.00;52693.22;5028276;28;20033;-69
2023/06/25 04:48:45;;;;;;;11.50;6.72;;;;;;;-144.47;100.00;52681.31;5028502;28;20421;-69
2023/06/25 04:51:11;;;;;;;16.90;7.85;;;;;;;-144.47;100.00;52697.19;5028334;28;20021;-68
2023/06/25 04:53:37;;;;;;;17.52;7.45;;;;;;;-144.47;100.00;52671.38;5027964;28;20701;-70
2023/06/25 04:56:02;;;;;;;13.48;7.35;;;;;;;-144.47;100.00;52677.34;5025846;28;20022;-69
2023/06/25 04:58:27;;;;;;;14.35;7.68;;;;;;;-144.47;100.00;52683.31;5020372;28;20535;-71
2023/06/25 05:00:53;;;;;;;14.90;6.68;;;;;;;-144.47;100.00;52699.19;5027479;28;20025;-68
2023/06/25 05:03:18;;;;;;;13.55;7.53;;;;;;;-144.47;100.00;52673.38;5028211;28;20032;-69
2023/06/25 05:05:43;;;;;;;14.80;7.63;;;;;;;-144.47;100.00;52709.13;5028678;28;20056;-71
2023/06/25 05:08:09;;;;;;;15.32;7.20;;;;;;;-144.47;100.00;52683.31;5027319;28;20097;-70
2023/06/25 05:10:34;;;;;;;19.95;7.70;;;;;;;-144.47;99.89;52689.25;5009970;28;20025;-70
2023/06/25 05:13:00;;;;;;;13.63;6.95;;;;;;;-144.47;99.80;52705.16;5028568;28;20036;-68
2023/06/25 05:15:25;;;;;;;13.20;7.32;;;;;;;-144.47;100.00;52699.19;5027217;28;20052;-70
2023/06/25 05:17:51;;;;;;;13.32;7.68;;;;;;;-144.47;99.70;52693.22;5028115;28;20415;-70
2023/06/25 05:20:16;;;;;;;14.25;6.93;;;;;;;-144.47;99.50;52687.28;5028557;28;20432;-71
2023/06/25 05:22:41;;;;;;;10.65;6.45;;;;;;;-144.47;98.44;52669.41;5028258;28;20047;-68
2023/06/25 05:25:07;;;;;;;15.00;6.43;;;;;;;-144.47;98.23;52689.25;5027642;28;20034;-71
2023/06/25 05:27:33;;;;;;;12.98;7.30;;;;;;;-144.47;98.16;52681.31;5027937;28;20033;-70
2023/06/25 05:29:58;;;;;;;11.35;7.13;;;;;;;-144.47;98.07;52669.41;5027257;28;20108;-70
2023/06/25 05:32:23;;;;;;;20.40;7.65;;;;;;;-144.47;97.84;52691.25;5027758;28;20495;-71
2023/06/25 05:34:49;;;;;;;11.40;6.93;;;;;;;-144.47;97.80;52663.44;5027456;28;20079;-67
2023/06/25 05:37:14;;;;;;;11.32;6.30;;;;;;;-144.47;97.63;52685.28;5027559;28;20090;-70
2023/06/25 05:39:39;;;;;;;15.43;7.03;;;;;;;-144.47;96.78;52701.19;5009942;28;20204;-70
2023/06/25 05:42:05;;;;;;;11.55;6.47;;;;;;;-144.47;96.52;52659.47;5027685;28;20029;-70
2023/06/25 05:44:30;;;;;;;12.65;7.03;;;;;;;-144.47;96.42;52683.31;5026029;28;20552;-69
2023/06/25 05:46:56;;;;;;;11.77;6.65;;;;;;;-144.47;96.12;52679.31;5027754;28;20056;-68
2023/06/25 05:49:21;;;;;;;11.05;7.05;;;;;;;-144.47;95.83;52659.47;5027783;28;20379;-68
2023/06/25 05:51:46;;;;;;;14.13;6.60;;;;;;;-144.47;95.52;52673.38;5027914;28;20039;-70
2023/06/25 05:54:12;;;;;;;10.82;6.47;;;;;;;-144.47;94.95;52677.34;5027473;28;20379;-70
2023/06/25 05:56:37;;;;;;;12.85;6.90;;;;;;;-144.47;95.14;52701.19;5021731;28;20030;-68
2023/06/25 05:59:03;;;;;;;12.88;6.38;;;;;;;-144.47;94.63;52701.19;5027080;28;20025;-71
2023/06/25 06:01:28;;;;;;;11.77;5.95;;;;;;;-144.47;93.28;52649.53;5027269;28;20105;-71
2023/06/25 06:03:53;;;;;;;10.38;6.22;;;;;;;-144.47;92.55;52689.25;5009185;28;20028;-71
2023/06/25 06:06:19;;;;;;;10.05;6.32;;;;;;;-144.47;92.21;52661.44;5027994;28;20033;-70
2023/06/25 06:08:44;;;;;;;13.33;5.63;;;;;;;-144.47;91.25;52669.41;5068314;22;20105;-65
2023/06/25 06:11:10;;;;;;;11.27;5.75;;;;;;;-144.47;90.51;52669.41;5048102;28;20075;-64
2023/06/25 06:13:36;;;;;;;12.27;5.88;;;;;;;-144.47;90.31;52687.28;5041865;28;20040;-65
2023/06/25 06:16:02;;;;;;;14.40;6.45;;;;;;;-144.47;89.95;52685.28;5031108;28;20439;-65
2023/06/25 06:18:27;;;;;;;9.35;5.28;;;;;;;-144.47;89.43;52681.31;5049143;28;20052;-64
2023/06/25 06:20:52;;;;;;;12.88;5.72;;;;;;;-144.47;88.58;52705.16;5049208;28;20111;-65
2023/06/25 06:23:18;;;;;;;10.50;5.60;;;;;;;-144.47;88.05;52693.22;5037670;28;20031;-66
2023/06/25 06:25:44;;;;;;;11.82;5.47;;;;;;;-144.47;87.40;52695.22;5052909;28;20032;-66
2023/06/25 06:28:09;;;;;;;15.75;5.68;;;;;;;-144.47;86.88;52691.25;5053440;28;20118;-64
2023/06/25 06:30:34;;;;;;;10.38;4.57;;;;;;;-144.47;86.10;52701.19;5033716;28;20021;-64
2023/06/25 06:33:00;;;;;;;11.50;5.35;;;;;;;-144.47;83.99;52677.34;5042988;28;20017;-65
2023/06/25 06:35:25;;;;;;;7.75;4.70;;;;;;;-144.47;83.12;52681.31;5036729;28;20049;-65
2023/06/25 06:37:51;;;;;;;10.05;4.97;;;;;;;-144.47;83.03;52659.47;5044818;28;20080;-65
2023/06/25 06:40:16;;;;;;;7.32;4.15;;;;;;;-144.47;78.62;52661.44;5025834;28;20021;-65
2023/06/25 06:42:41;;;;;;;8.23;4.15;;;;;;;-144.47;78.47;52677.34;5027720;28;20044;-65
2023/06/25 06:45:07;;;;;;;7.93;4.45;;;;;;;-144.47;78.82;52697.19;5026913;28;20100;-65
2023/06/25 06:47:33;;;;;;;9.63;4.90;;;;;;;-144.47;79.49;52681.31;5032333;28;20040;-65
2023/06/25 06:50:00;;;;;;;9.95;4.75;;;;;;;-144.47;78.82;52711.09;5031950;28;20082;-65
2023/06/25 06:52:27;;;;;;;7.40;5.03;;;;;;;-144.47;78.36;52661.44;5030254;28;20484;-62
2023/06/25 06:54:52;;;;;;;11.48;5.00;;;;;;;-144.47;77.90;52703.16;5044761;28;20079;-65
2023/06/25 06:57:18;;;;;;;10.80;5.00;;;;;;;-144.47;77.57;52687.28;5035097;28;20037;-66
2023/06/25 06:59:46;;;;;;;7.10;3.75;;;;;;;-144.47;75.41;52707.13;5036446;28;20021;-66
2023/06/25 07:02:11;;;;;;;11.57;4.32;;;;;;;-144.47;75.31;52687.28;5037141;28;20032;-65
2023/06/25 07:04:38;;;;;;;8.75;4.60;;;;;;;-144.47;75.39;52673.38;5043728;28;20026;-65
2023/06/25 07:07:04;;;;;;;8.30;4.82;;;;;;;-144.47;75.71;52701.19;5026649;28;20021;-66
2023/06/25 07:09:29;;;;;;;7.97;4.05;;;;;;;-144.47;74.22;52683.31;5031137;28;20049;-65
2023/06/25 07:11:55;;;;;;;9.02;4.35;;;;;;;-144.47;72.88;52703.16;5050848;28;20052;-65
2023/06/25 07:14:20;;;;;;;8.20;4.55;;;;;;;-144.47;72.40;52679.31;5048502;28;20028;-65
2023/06/25 07:16:46;;;;;;;9.13;4.05;;;;;;;-144.47;72.10;52697.19;5042217;28;20033;-66
2023/06/25 07:19:11;;;;;;;10.80;4.70;;;;;;;-144.47;71.26;52691.25;5029919;28;20526;-64
2023/06/25 07:21:37;;;;;;;9.65;3.90;;;;;;;-144.47;71.88;52687.28;5031881;28;20139;-66
2023/06/25 07:24:03;;;;;;;7.95;4.38;;;;;;;-144.47;71.66;52697.19;5012147;28;20018;-66
2023/06/25 07:26:28;;;;;;;10.55;3.95;;;;;;;-144.47;71.73;52713.09;5031471;28;20071;-65
2023/06/25 07:28:54;;;;;;;6.32;3.63;;;;;;;-144.47;71.09;52693.22;5013645;28;20022;-65
2023/06/25 07:31:19;;;;;;;10.57;4.50;;;;;;;-144.47;70.10;52697.19;5031811;28;20080;-65
2023/06/25 07:33:44;;;;;;;10.23;4.45;;;;;;;-144.47;69.92;52707.13;5028630;28;20036;-63
2023/06/25 07:36:10;;;;;;;9.80;4.45;;;;;;;-144.47;69.49;52689.25;5028658;28;20487;-64
2023/06/25 07:38:36;;;;;;;12.00;4.22;;;;;;;-144.47;69.00;52691.25;5031471;28;20018;-65
2023/06/25 07:41:01;;;;;;;8.30;5.10;;;;;;;-144.47;68.60;52693.22;5031509;28;20119;-64
2023/06/25 07:43:27;;;;;;;7.78;4.65;;;;;;;-144.47;68.52;52707.13;5031052;28;20080;-63
2023/06/25 07:45:52;;;;;;;8.75;4.07;;;;;;;-144.47;63.63;52705.16;5012121;28;20029;-65
2023/06/25 07:48:17;;;;;;;6.88;3.90;;;;;;;-144.47;62.10;52709.13;5030442;28;20030;-66
2023/06/25 07:50:43;;;;;;;7.70;3.50;;;;;;;-144.47;61.12;52711.09;5042234;28;20056;-65
2023/06/25 07:53:08;;;;;;;6.35;3.33;;;;;;;-144.47;59.27;52711.09;5039920;28;20033;-66
2023/06/25 07:55:41;;;;;;;9.52;3.95;;;;;;;-144.47;60.70;52721.03;5033091;28;20021;-64
2023/06/25 07:58:08;;;;;;;7.13;3.60;;;;;;;-144.47;60.77;52703.16;5025315;28;20041;-67
2023/06/25 08:00:34;;;;;;;10.63;4.03;;;;;;;-144.47;59.31;52685.28;5031782;28;20025;-66
2023/06/25 08:03:00;;;;;;;7.40;4.05;;;;;;;-144.47;58.01;52721.03;5028895;28;20060;-66
2023/06/25 08:05:25;;;;;;;6.50;3.30;;;;;;;-144.47;57.29;52681.31;5025226;28;20033;-64
2023/06/25 08:07:50;;;;;;;6.80;3.60;;;;;;;-144.47;58.16;52709.13;5025833;28;20025;-66
2023/06/25 08:10:16;;;;;;;7.03;3.28;;;;;;;-144.47;58.58;52705.16;5029665;28;20398;-66
2023/06/25 08:12:41;;;;;;;8.07;3.75;;;;;;;-144.47;58.01;52707.13;5026297;28;20552;-65
2023/06/25 08:15:07;;;;;;;10.95;3.72;;;;;;;-144.47;56.67;52683.31;5028109;28;20117;-64
2023/06/25 08:17:32;;;;;;;6.03;3.60;;;;;;;-144.47;55.88;52709.13;5022904;28;20470;-65
2023/06/25 08:19:57;;;;;;;7.05;3.58;;;;;;;-144.47;56.37;52681.31;5020709;28;20029;-66
2023/06/25 08:22:23;;;;;;;7.20;4.43;;;;;;;-144.47;55.88;52705.16;5032895;28;20111;-64
2023/06/25 08:24:48;;;;;;;6.53;3.75;;;;;;;-144.47;55.46;52707.13;5043495;28;20053;-65
2023/06/25 08:27:13;;;;;;;12.35;4.53;;;;;;;-144.47;54.85;52709.13;5032267;28;20031;-62
2023/06/25 08:29:40;;;;;;;6.40;3.38;;;;;;;-144.47;55.03;52685.28;5029572;28;20021;-65
2023/06/25 08:32:06;;;;;;;7.25;3.63;;;;;;;-144.47;55.40;52721.03;5028355;28;20038;-63
2023/06/25 08:34:32;;;;;;;7.03;3.70;;;;;;;-144.47;54.18;52709.13;5022198;28;20036;-65
2023/06/25 08:36:58;;;;;;;8.25;3.80;;;;;;;-144.47;53.89;52734.94;5044925;28;20021;-66
2023/06/25 08:39:23;;;;;;;7.80;3.70;;;;;;;-144.47;53.92;52711.09;5027029;28;20025;-63
2023/06/25 08:41:49;;;;;;;8.18;3.70;;;;;;;-144.47;53.88;52711.09;5022046;28;20029;-66
2023/06/25 08:44:14;;;;;;;9.63;4.05;;;;;;;-144.47;53.05;52707.13;5029771;28;20039;-64
2023/06/25 08:46:46;;;;;;;10.55;4.15;;;;;;;-144.47;53.29;52728.97;5031540;28;20109;-65
2023/06/25 08:49:12;;;;;;;7.65;3.92;;;;;;;-144.47;54.21;52728.97;5012450;28;20033;-64
2023/06/25 08:51:38;;;;;;;7.85;4.07;;;;;;;-144.47;53.80;52721.03;5042416;28;20029;-66
2023/06/25 08:54:05;;;;;;;8.90;4.07;;;;;;;-144.47;53.41;52707.13;5033601;28;20022;-66
2023/06/25 08:56:30;;;;;;;9.25;4.30;;;;;;;-144.47;53.91;52742.88;5028895;28;20105;-66
2023/06/25 08:58:56;;;;;;;10.23;4.10;;;;;;;-144.47;54.00;52725.00;5028230;28;20116;-66
2023/06/25 09:01:21;;;;;;;7.28;3.80;;;;;;;-144.47;53.86;52738.91;5010993;28;20502;-66
2023/06/25 09:03:47;;;;;;;6.72;3.45;;;;;;;-144.47;53.54;52713.09;5028000;28;20113;-66
2023/06/25 09:06:15;;;;;;;7.45;4.28;;;;;;;-144.47;53.07;52719.06;5039125;28;20029;-67
2023/06/25 09:08:42;;;;;;;7.93;3.60;;;;;;;-144.47;52.45;52742.88;5035951;28;20530;-65
2023/06/25 09:11:08;;;;;;;7.82;4.45;;;;;;;-144.47;51.67;52748.84;5031735;28;20514;-64
2023/06/25 09:13:33;;;;;;;8.30;3.67;;;;;;;-144.47;50.60;52721.03;5023522;28;20029;-64
2023/06/25 09:16:04;;;;;;;8.35;4.10;;;;;;;-144.47;51.22;52725.00;5021004;28;20033;-66
2023/06/25 09:18:30;;;;;;;7.80;3.80;;;;;;;-144.47;51.64;52730.97;5006053;28;20029;-66
2023/06/25 09:21:00;;;;;;;6.25;3.25;;;;;;;-144.47;50.97;52732.94;5019502;28;20038;-66
2023/06/25 09:23:25;;;;;;;5.97;3.50;;;;;;;-144.47;49.95;52719.06;5005145;28;20030;-61
2023/06/25 09:25:52;;;;;;;5.55;3.55;;;;;;;-144.47;48.39;52768.69;5023503;28;20025;-65
2023/06/25 09:28:18;;;;;;;12.00;3.40;;;;;;;-144.47;47.84;52752.81;5023071;28;20502;-62
2023/06/25 09:30:43;;;;;;;5.43;3.22;;;;;;;-144.47;48.26;52740.91;5017548;28;20032;-66
2023/06/25 09:33:11;;;;;;;10.30;3.60;;;;;;;-144.47;47.82;52752.81;5022811;28;20025;-66
2023/06/25 09:35:36;;;;;;;6.82;3.40;;;;;;;-144.47;47.26;52736.94;5022467;28;20525;-66
2023/06/25 09:38:02;;;;;;;6.10;3.03;;;;;;;-144.47;46.80;52764.72;5019501;28;20124;-65
2023/06/25 09:40:27;;;;;;;6.07;3.40;;;;;;;-144.47;47.00;52770.69;5019748;28;20391;-62
2023/06/25 09:42:55;;;;;;;6.18;3.67;;;;;;;-144.47;46.93;52760.75;5022122;28;20104;-66
2023/06/25 09:45:22;;;;;;;5.78;3.08;;;;;;;-144.47;46.39;52772.69;5023532;28;20085;-64
2023/06/25 09:47:49;;;;;;;6.18;3.40;;;;;;;-144.47;46.44;52756.78;5022078;28;20029;-64
2023/06/25 09:50:26;;;;;;;8.15;3.58;;;;;;;-144.47;46.75;52778.63;5021503;28;20037;-64
2023/06/25 09:52:57;;;;;;;6.85;3.30;;;;;;;-144.47;46.34;52772.69;5021633;28;20527;-65
2023/06/25 09:55:25;;;;;;;7.47;3.45;;;;;;;-144.47;46.32;52780.63;5016882;28;20040;-63
2023/06/25 09:57:51;;;;;;;5.95;3.78;;;;;;;-144.47;45.78;52762.75;5021593;28;20033;-64
2023/06/25 10:00:19;;;;;;;7.05;3.28;;;;;;;-144.47;45.38;52816.38;5022885;28;20056;-66
2023/06/25 10:02:44;;;;;;;5.43;3.30;;;;;;;-144.47;44.52;52794.53;5004718;28;20029;-65
2023/06/25 10:05:10;;;;;;;7.22;3.78;;;;;;;-144.47;44.83;52784.59;5024940;28;20033;-62
2023/06/25 10:07:36;;;;;;;7.97;3.47;;;;;;;-144.47;43.52;52790.56;5025233;28;20037;-65
2023/06/25 10:10:01;;;;;;;8.02;4.10;;;;;;;-144.47;43.79;52772.69;5022288;28;20025;-64
2023/06/25 10:12:32;;;;;;;12.60;5.43;;;;;;;-144.47;44.12;52786.56;5024826;28;20858;-66
2023/06/25 10:15:00;;;;;;;7.82;3.53;;;;;;;-144.47;43.06;52812.41;5023508;28;20026;-65
2023/06/25 10:17:25;;;;;;;6.43;3.22;;;;;;;-144.47;42.75;52798.50;5020575;28;20033;-66
2023/06/25 10:19:52;;;;;;;10.85;6.03;;;;;;;-144.47;42.87;52780.63;5022474;28;20051;-65
2023/06/25 10:22:25;;;;;;;6.05;3.10;;;;;;;-144.47;42.27;52772.69;5025886;28;20025;-66
2023/06/25 10:24:52;;;;;;;8.77;4.65;;;;;;;-144.47;43.14;52782.59;5025450;28;20576;-65
2023/06/25 10:27:20;;;;;;;7.68;3.00;;;;;;;-144.47;42.64;52762.75;5024255;28;20396;-63
2023/06/25 10:29:45;;;;;;;6.90;3.28;;;;;;;-144.47;42.93;52790.56;5024326;28;20474;-66
2023/06/25 10:32:12;;;;;;;9.00;3.55;;;;;;;-144.47;43.32;52764.72;5026297;28;20530;-65
2023/06/25 10:34:38;;;;;;;6.95;3.58;;;;;;;-144.47;43.51;52786.56;5024709;28;20033;-64
2023/06/25 10:37:04;;;;;;;7.30;3.45;;;;;;;-144.47;43.18;52770.69;5026343;28;20032;-65
2023/06/25 10:39:37;;;;;;;6.05;2.75;;;;;;;-144.47;43.09;52788.56;5024863;28;20491;-63
2023/06/25 10:42:03;;;;;;;6.43;2.85;;;;;;;-144.47;42.65;52784.59;5025824;28;20124;-63
2023/06/25 10:44:29;;;;;;;7.72;3.50;;;;;;;-144.47;42.65;52774.66;5024831;28;20140;-64
2023/06/25 10:47:12;;;;;;;6.72;3.60;;;;;;;-144.47;42.54;52786.56;5025837;28;20041;-64
2023/06/25 10:49:38;;;;;;;6.22;3.03;;;;;;;-144.47;41.95;52790.56;5025884;28;20059;-65
2023/06/25 10:52:05;;;;;;;8.57;3.63;;;;;;;-144.47;41.80;52812.41;5022870;28;20033;-66
2023/06/25 10:54:32;;;;;;;5.95;3.42;;;;;;;-144.47;41.22;52824.31;5023973;28;20033;-64
2023/06/25 10:57:11;;;;;;;10.20;3.03;;;;;;;-144.47;40.46;52844.19;5026472;28;20541;-64
2023/06/25 10:59:38;;;;;;;6.50;3.47;;;;;;;-144.47;40.03;52836.22;5024058;28;20033;-63
2023/06/25 11:02:16;;;;;;;12.35;3.42;;;;;;;-144.47;39.91;52852.13;5024313;28;20040;-65